Terminal Aerodrome Forecast
Issued by NWS

Home | Current Version | Previous Version | Text Only | Print | Product List | Glossary On
Versions: 1 2 3 4 5 6 7 8 9 10 11 12 13 14 15 16
000
FTUS45 KFGZ 192334
TAFGCN
TAF
KGCN 192334Z 2000/2024 22011KT 1SM -SN BR OVC005
      TEMPO 2000/2004 1/4SM SN FZFG VV005
     FM200800 VRB04KT 6SM -SHSN BR OVC009
     FM201800 22010G19KT 1/2SM SN FZFG VV005=

USA.gov is the U.S. government's official web portal to all federal, state and local government web resources and services.